createdAt,value
2016-10-20T00:00:20.093Z,0
2016-10-20T00:01:20.092Z,0
2016-10-20T00:02:20.108Z,0
2016-10-20T00:03:20.230Z,0
2016-10-20T00:04:19.840Z,0
2016-10-20T00:05:20.210Z,0
2016-10-20T00:06:19.872Z,0
2016-10-20T00:07:20.534Z,0
2016-10-20T00:08:19.914Z,0
2016-10-20T00:09:19.927Z,0
2016-10-20T00:10:20.263Z,0
2016-10-20T00:11:19.964Z,0
2016-10-20T00:12:19.989Z,0
2016-10-20T00:13:20.007Z,0
2016-10-20T00:14:19.707Z,0
2016-10-20T00:15:20.048Z,0
2016-10-20T00:16:20.064Z,0
2016-10-20T00:17:20.708Z,0
2016-10-20T00:18:20.128Z,0
2016-10-20T00:19:20.116Z,0
2016-10-20T00:20:20.455Z,0
2016-10-20T00:21:20.151Z,0
2016-10-20T00:22:20.181Z,0
2016-10-20T00:23:20.544Z,0
2016-10-20T00:24:20.530Z,0
2016-10-20T00:25:20.548Z,0
2016-10-20T00:26:20.562Z,0
2016-10-20T00:27:20.900Z,0
2016-10-20T00:28:20.915Z,0
2016-10-20T00:29:20.305Z,0
2016-10-20T00:30:20.645Z,0
2016-10-20T00:31:20.345Z,0
2016-10-20T00:32:20.676Z,0
2016-10-20T00:33:20.707Z,0
2016-10-20T00:34:20.718Z,0
2016-10-20T00:35:20.735Z,0
2016-10-20T00:36:20.492Z,0
2016-10-20T00:37:20.144Z,0
2016-10-20T00:38:20.480Z,0
2016-10-20T00:39:20.510Z,0
2016-10-20T00:40:20.515Z,0
2016-10-20T00:41:20.222Z,0
2016-10-20T00:42:20.867Z,0
2016-10-20T00:43:20.615Z,0
2016-10-20T00:44:20.589Z,0
2016-10-20T00:45:20.933Z,0
2016-10-20T00:46:20.986Z,0
2016-10-20T00:47:21.278Z,0
2016-10-20T00:48:20.375Z,0
2016-10-20T00:49:21.010Z,0
2016-10-20T00:50:21.019Z,0
2016-10-20T00:51:20.723Z,0
2016-10-20T00:52:21.372Z,0
2016-10-20T00:53:20.447Z,0
2016-10-20T00:54:20.781Z,0
2016-10-20T00:55:20.483Z,0
2016-10-20T00:56:20.501Z,0
2016-10-20T00:57:21.154Z,0
2016-10-20T00:58:21.205Z,0
2016-10-20T00:59:20.558Z,0
2016-10-20T01:00:21.526Z,0
2016-10-20T01:01:20.914Z,0
2016-10-20T01:02:20.635Z,0
2016-10-20T01:03:20.953Z,0
2016-10-20T01:04:20.969Z,0
2016-10-20T01:05:21.202Z,0
2016-10-20T01:06:20.729Z,0
2016-10-20T01:07:20.710Z,0
2016-10-20T01:08:20.726Z,0
2016-10-20T01:09:20.749Z,0
2016-10-20T01:10:21.403Z,0
2016-10-20T01:11:21.103Z,0
2016-10-20T01:12:20.839Z,0
2016-10-20T01:13:21.144Z,0
2016-10-20T01:14:21.477Z,0
2016-10-20T01:15:21.178Z,0
2016-10-20T01:16:21.194Z,0
2016-10-20T01:17:21.218Z,0
2016-10-20T01:18:20.937Z,0
2016-10-20T01:19:21.301Z,0
2016-10-20T01:20:21.272Z,0
2016-10-20T01:21:21.290Z,0
2016-10-20T01:22:21.657Z,0
2016-10-20T01:23:21.333Z,0
2016-10-20T01:24:21.347Z,0
2016-10-20T01:25:21.682Z,0
2016-10-20T01:26:21.385Z,0
2016-10-20T01:27:21.092Z,0
2016-10-20T01:28:21.777Z,0
2016-10-20T01:29:21.449Z,0
2016-10-20T01:30:22.099Z,0
2016-10-20T01:31:21.511Z,0
2016-10-20T01:32:21.499Z,0
2016-10-20T01:33:21.221Z,0
2016-10-20T01:34:22.168Z,0
2016-10-20T01:35:21.871Z,0
2016-10-20T01:36:21.269Z,0
2016-10-20T01:37:21.594Z,0
2016-10-20T01:38:21.303Z,0
2016-10-20T01:39:21.632Z,0
2016-10-20T01:40:21.973Z,0
2016-10-20T01:41:21.672Z,0
2016-10-20T01:42:22.002Z,0
2016-10-20T01:43:22.344Z,0
2016-10-20T01:44:22.362Z,0
2016-10-20T01:45:21.744Z,0
2016-10-20T01:46:22.103Z,0
2016-10-20T01:47:21.477Z,0
2016-10-20T01:48:21.810Z,0
2016-10-20T01:49:21.822Z,0
2016-10-20T01:50:22.157Z,0
2016-10-20T01:51:22.177Z,0
2016-10-20T01:52:21.566Z,0
2016-10-20T01:53:21.618Z,0
2016-10-20T01:54:21.914Z,0
2016-10-20T01:55:21.936Z,0
2016-10-20T01:56:21.678Z,0
2016-10-20T01:57:21.662Z,0
2016-10-20T01:58:21.991Z,0
2016-10-20T01:59:22.012Z,0
2016-10-20T02:00:22.664Z,0
2016-10-20T02:01:22.047Z,0
2016-10-20T02:02:22.382Z,0
2016-10-20T02:03:21.778Z,0
2016-10-20T02:04:22.107Z,0
2016-10-20T02:05:22.122Z,0
2016-10-20T02:06:22.144Z,0
2016-10-20T02:07:22.166Z,0
2016-10-20T02:08:21.872Z,0
2016-10-20T02:09:21.910Z,0
2016-10-20T02:10:22.536Z,0
2016-10-20T02:11:22.553Z,0
2016-10-20T02:12:22.596Z,0
2016-10-20T02:13:22.916Z,0
2016-10-20T02:14:22.294Z,0
2016-10-20T02:15:22.332Z,0
2016-10-20T02:16:22.337Z,0
2016-10-20T02:17:22.355Z,0
2016-10-20T02:18:22.369Z,0
2016-10-20T02:19:22.076Z,0
2016-10-20T02:20:22.408Z,0
2016-10-20T02:21:22.461Z,0
2016-10-20T02:22:22.472Z,0
2016-10-20T02:23:22.464Z,0
2016-10-20T02:24:23.114Z,0
2016-10-20T02:25:22.509Z,0
2016-10-20T02:26:22.527Z,0
2016-10-20T02:27:22.227Z,0
2016-10-20T02:28:22.879Z,0
2016-10-20T02:29:22.578Z,0
2016-10-20T02:30:22.936Z,0
2016-10-20T02:31:22.627Z,0
2016-10-20T02:32:22.636Z,0
2016-10-20T02:33:23.286Z,0
2016-10-20T02:34:22.363Z,0
2016-10-20T02:35:22.692Z,0
2016-10-20T02:36:23.026Z,0
2016-10-20T02:37:23.042Z,0
2016-10-20T02:38:22.750Z,0
2016-10-20T02:39:22.785Z,0
2016-10-20T02:40:22.785Z,0
2016-10-20T02:41:22.805Z,0
2016-10-20T02:42:22.842Z,0
2016-10-20T02:43:22.531Z,0
2016-10-20T02:44:22.862Z,0
2016-10-20T02:45:23.217Z,0
2016-10-20T02:46:22.906Z,0
2016-10-20T02:47:23.234Z,0
2016-10-20T02:48:23.566Z,0
2016-10-20T02:49:22.959Z,0
2016-10-20T02:50:22.976Z,0
2016-10-20T02:51:23.019Z,0
2016-10-20T02:52:23.330Z,0
2016-10-20T02:53:23.052Z,0
2016-10-20T02:54:23.066Z,0
2016-10-20T02:55:23.392Z,0
2016-10-20T02:56:23.097Z,0
2016-10-20T02:57:22.794Z,0
2016-10-20T02:58:23.445Z,0
2016-10-20T02:59:23.149Z,0
2016-10-20T03:00:23.182Z,0
2016-10-20T03:01:23.190Z,0
2016-10-20T03:02:23.518Z,0
2016-10-20T03:03:23.541Z,0
2016-10-20T03:04:23.242Z,0
2016-10-20T03:05:22.949Z,0
2016-10-20T03:06:22.969Z,0
2016-10-20T03:07:23.301Z,0
2016-10-20T03:08:23.340Z,0
2016-10-20T03:09:23.653Z,0
2016-10-20T03:10:23.077Z,0
2016-10-20T03:11:23.716Z,0
2016-10-20T03:12:23.430Z,0
2016-10-20T03:13:23.427Z,0
2016-10-20T03:14:23.749Z,0
2016-10-20T03:15:23.814Z,0
2016-10-20T03:16:23.824Z,0
2016-10-20T03:17:23.494Z,0
2016-10-20T03:18:23.856Z,0
2016-10-20T03:19:23.846Z,0
2016-10-20T03:20:23.564Z,0
2016-10-20T03:21:23.247Z,0
2016-10-20T03:22:23.903Z,0
2016-10-20T03:23:23.621Z,0
2016-10-20T03:24:23.630Z,0
2016-10-20T03:25:23.643Z,0
2016-10-20T03:26:23.975Z,0
2016-10-20T03:27:23.359Z,0
2016-10-20T03:28:24.010Z,0
2016-10-20T03:29:23.401Z,0
2016-10-20T03:30:24.063Z,0
2016-10-20T03:31:24.074Z,0
2016-10-20T03:32:23.465Z,0
2016-10-20T03:33:23.513Z,0
2016-10-20T03:34:23.811Z,0
2016-10-20T03:35:23.514Z,0
2016-10-20T03:36:23.865Z,0
2016-10-20T03:37:23.556Z,0
2016-10-20T03:38:24.230Z,0
2016-10-20T03:39:23.906Z,0
2016-10-20T03:40:23.953Z,0
2016-10-20T03:41:24.289Z,0
2016-10-20T03:42:23.999Z,0
2016-10-20T03:43:23.665Z,0
2016-10-20T03:44:24.000Z,0
2016-10-20T03:45:24.339Z,0
2016-10-20T03:46:24.666Z,0
2016-10-20T03:47:24.057Z,0
2016-10-20T03:48:24.084Z,0
2016-10-20T03:49:23.795Z,0
2016-10-20T03:50:24.111Z,0
2016-10-20T03:51:24.146Z,0
2016-10-20T03:52:24.466Z,0
2016-10-20T03:53:24.190Z,0
2016-10-20T03:54:24.507Z,0
2016-10-20T03:55:24.525Z,0
2016-10-20T03:56:24.556Z,0
2016-10-20T03:57:24.917Z,0
2016-10-20T03:58:24.623Z,0
2016-10-20T03:59:24.911Z,0
2016-10-20T04:00:24.625Z,0
2016-10-20T04:01:24.330Z,0
2016-10-20T04:02:24.048Z,0
2016-10-20T04:03:24.676Z,0
2016-10-20T04:04:24.713Z,0
2016-10-20T04:05:24.396Z,0
2016-10-20T04:06:25.044Z,0
2016-10-20T04:07:25.089Z,0
2016-10-20T04:08:25.204Z,0
2016-10-20T04:09:25.105Z,0
2016-10-20T04:10:24.809Z,0
2016-10-20T04:11:24.508Z,0
2016-10-20T04:12:24.534Z,0
2016-10-20T04:13:24.553Z,0
2016-10-20T04:14:24.598Z,0
2016-10-20T04:15:24.909Z,0
2016-10-20T04:16:24.607Z,0
2016-10-20T04:17:24.310Z,0
2016-10-20T04:18:24.961Z,0
2016-10-20T04:19:24.660Z,0
2016-10-20T04:20:25.005Z,0
2016-10-20T04:21:24.395Z,0
2016-10-20T04:22:24.399Z,0
2016-10-20T04:23:24.744Z,0
2016-10-20T04:24:24.440Z,0
2016-10-20T04:25:25.091Z,0
2016-10-20T04:26:24.799Z,0
2016-10-20T04:27:25.133Z,0
2016-10-20T04:28:25.465Z,0
2016-10-20T04:29:24.537Z,0
2016-10-20T04:30:24.607Z,0
2016-10-20T04:31:25.205Z,0
2016-10-20T04:32:24.913Z,0
2016-10-20T04:33:24.940Z,0
2016-10-20T04:34:24.954Z,0
2016-10-20T04:35:25.289Z,0
2016-10-20T04:36:25.300Z,0
2016-10-20T04:37:25.010Z,0
2016-10-20T04:38:25.028Z,0
2016-10-20T04:39:25.357Z,0
2016-10-20T04:40:25.057Z,0
2016-10-20T04:41:25.714Z,0
2016-10-20T04:42:25.763Z,0
2016-10-20T04:43:25.119Z,0
2016-10-20T04:44:25.453Z,0
2016-10-20T04:45:25.168Z,0
2016-10-20T04:46:24.931Z,0
2016-10-20T04:47:25.197Z,0
2016-10-20T04:48:25.216Z,0
2016-10-20T04:49:24.944Z,0
2016-10-20T04:50:25.254Z,0
2016-10-20T04:51:25.273Z,0
2016-10-20T04:52:25.700Z,0
2016-10-20T04:53:25.636Z,0
2016-10-20T04:54:25.643Z,0
2016-10-20T04:55:25.034Z,0
2016-10-20T04:56:25.682Z,0
2016-10-20T04:57:25.702Z,0
2016-10-20T04:58:25.409Z,0
2016-10-20T04:59:25.110Z,0
2016-10-20T05:00:26.093Z,0
2016-10-20T05:01:25.795Z,0
2016-10-20T05:02:25.801Z,0
2016-10-20T05:03:25.183Z,0
2016-10-20T05:04:25.837Z,0
2016-10-20T05:05:25.858Z,0
2016-10-20T05:06:25.556Z,0
2016-10-20T05:07:25.257Z,0
2016-10-20T05:08:25.964Z,0
2016-10-20T05:09:25.301Z,0
2016-10-20T05:10:25.948Z,0
2016-10-20T05:11:25.971Z,0
2016-10-20T05:12:25.359Z,0
2016-10-20T05:13:26.320Z,0
2016-10-20T05:14:26.029Z,0
2016-10-20T05:15:26.052Z,0
2016-10-20T05:16:26.076Z,0
2016-10-20T05:17:26.402Z,0
2016-10-20T05:18:26.106Z,0
2016-10-20T05:19:26.142Z,0
2016-10-20T05:20:26.155Z,0
2016-10-20T05:21:25.850Z,0
2016-10-20T05:22:26.185Z,0
2016-10-20T05:23:25.587Z,0
2016-10-20T05:24:26.218Z,0
2016-10-20T05:25:26.238Z,0
2016-10-20T05:26:25.944Z,0
2016-10-20T05:27:26.281Z,0
2016-10-20T05:28:25.984Z,0
2016-10-20T05:29:26.325Z,0
2016-10-20T05:30:26.339Z,0
2016-10-20T05:31:26.038Z,0
2016-10-20T05:32:26.371Z,0
2016-10-20T05:33:26.399Z,0
2016-10-20T05:34:26.114Z,0
2016-10-20T05:35:26.119Z,0
2016-10-20T05:36:26.445Z,0
2016-10-20T05:37:26.490Z,0
2016-10-20T05:38:26.176Z,4
2016-10-20T05:39:26.499Z,4
2016-10-20T05:40:26.522Z,4
2016-10-20T05:41:26.255Z,4
2016-10-20T05:42:26.562Z,0
2016-10-20T05:43:26.584Z,0
2016-10-20T05:44:26.916Z,0
2016-10-20T05:45:26.949Z,4
2016-10-20T05:46:26.639Z,4
2016-10-20T05:47:26.976Z,4
2016-10-20T05:48:26.672Z,0
2016-10-20T05:49:26.702Z,4
2016-10-20T05:50:26.403Z,4
2016-10-20T05:51:26.728Z,8
2016-10-20T05:52:26.757Z,4
2016-10-20T05:53:26.784Z,8
2016-10-20T05:54:26.477Z,8
2016-10-20T05:55:26.808Z,8
2016-10-20T05:56:26.217Z,8
2016-10-20T05:57:26.851Z,12
2016-10-20T05:58:26.548Z,12
2016-10-20T05:59:26.581Z,12
2016-10-20T06:00:26.624Z,12
2016-10-20T06:01:26.624Z,12
2016-10-20T06:02:27.421Z,12
2016-10-20T06:03:27.386Z,12
2016-10-20T06:04:26.702Z,16
2016-10-20T06:05:26.364Z,20
2016-10-20T06:06:27.024Z,20
2016-10-20T06:07:26.408Z,16
2016-10-20T06:08:27.367Z,20
2016-10-20T06:09:27.075Z,20
2016-10-20T06:10:27.129Z,24
2016-10-20T06:11:26.794Z,20
2016-10-20T06:12:27.508Z,20
2016-10-20T06:13:26.838Z,20
2016-10-20T06:14:26.866Z,24
2016-10-20T06:15:26.874Z,24
2016-10-20T06:16:26.891Z,24
2016-10-20T06:17:26.909Z,28
2016-10-20T06:18:26.949Z,28
2016-10-20T06:19:27.269Z,28
2016-10-20T06:20:26.958Z,28
2016-10-20T06:21:27.304Z,28
2016-10-20T06:22:27.000Z,28
2016-10-20T06:23:27.010Z,32
2016-10-20T06:24:27.036Z,28
2016-10-20T06:25:27.071Z,32
2016-10-20T06:26:27.718Z,32
2016-10-20T06:27:27.090Z,32
2016-10-20T06:28:27.111Z,36
2016-10-20T06:29:27.447Z,36
2016-10-20T06:30:27.143Z,40
2016-10-20T06:31:27.492Z,44
2016-10-20T06:32:27.190Z,44
2016-10-20T06:33:27.229Z,48
2016-10-20T06:34:27.863Z,52
2016-10-20T06:35:27.567Z,60
2016-10-20T06:36:26.941Z,56
2016-10-20T06:37:27.909Z,56
2016-10-20T06:38:27.932Z,52
2016-10-20T06:39:27.637Z,56
2016-10-20T06:40:27.353Z,56
2016-10-20T06:41:27.055Z,56
2016-10-20T06:42:27.368Z,52
2016-10-20T06:43:27.706Z,44
2016-10-20T06:44:27.100Z,44
2016-10-20T06:45:28.064Z,44
2016-10-20T06:46:27.139Z,44
2016-10-20T06:47:28.101Z,40
2016-10-20T06:48:27.510Z,44
2016-10-20T06:49:27.213Z,44
2016-10-20T06:50:27.526Z,40
2016-10-20T06:51:27.547Z,40
2016-10-20T06:52:27.558Z,36
2016-10-20T06:53:27.596Z,36
2016-10-20T06:54:27.913Z,32
2016-10-20T06:55:27.626Z,36
2016-10-20T06:56:27.635Z,36
2016-10-20T06:57:28.288Z,36
2016-10-20T06:58:27.677Z,32
2016-10-20T06:59:27.376Z,40
2016-10-20T07:00:27.397Z,40
2016-10-20T07:01:28.047Z,44
2016-10-20T07:02:28.064Z,44
2016-10-20T07:03:28.081Z,48
2016-10-20T07:04:28.102Z,44
2016-10-20T07:05:27.495Z,48
2016-10-20T07:06:27.826Z,48
2016-10-20T07:07:28.178Z,48
2016-10-20T07:08:27.857Z,48
2016-10-20T07:09:27.876Z,48
2016-10-20T07:10:27.595Z,52
2016-10-20T07:11:27.619Z,48
2016-10-20T07:12:28.459Z,52
2016-10-20T07:13:28.284Z,52
2016-10-20T07:14:27.683Z,52
2016-10-20T07:15:27.690Z,48
2016-10-20T07:16:28.331Z,52
2016-10-20T07:17:28.663Z,52
2016-10-20T07:18:28.057Z,48
2016-10-20T07:19:28.384Z,52
2016-10-20T07:20:28.088Z,52
2016-10-20T07:21:28.421Z,52
2016-10-20T07:22:28.129Z,52
2016-10-20T07:23:27.825Z,52
2016-10-20T07:24:28.495Z,56
2016-10-20T07:25:28.215Z,56
2016-10-20T07:26:28.516Z,60
2016-10-20T07:27:28.850Z,60
2016-10-20T07:28:28.242Z,64
2016-10-20T07:29:27.948Z,64
2016-10-20T07:30:28.591Z,64
2016-10-20T07:31:28.612Z,64
2016-10-20T07:32:27.998Z,72
2016-10-20T07:33:28.645Z,76
2016-10-20T07:34:28.667Z,76
2016-10-20T07:35:28.056Z,84
2016-10-20T07:36:28.388Z,84
2016-10-20T07:37:28.410Z,92
2016-10-20T07:38:28.743Z,88
2016-10-20T07:39:28.762Z,88
2016-10-20T07:40:28.459Z,84
2016-10-20T07:41:28.483Z,88
2016-10-20T07:42:28.186Z,84
2016-10-20T07:43:28.834Z,84
2016-10-20T07:44:29.164Z,84
2016-10-20T07:45:28.879Z,80
2016-10-20T07:46:28.501Z,80
2016-10-20T07:47:28.597Z,80
2016-10-20T07:48:28.616Z,84
2016-10-20T07:49:28.631Z,84
2016-10-20T07:50:29.022Z,88
2016-10-20T07:51:28.989Z,88
2016-10-20T07:52:29.016Z,96
2016-10-20T07:53:29.347Z,100
2016-10-20T07:54:28.741Z,100
2016-10-20T07:55:28.754Z,100
2016-10-20T07:56:29.085Z,104
2016-10-20T07:57:28.780Z,104
2016-10-20T07:58:29.445Z,100
2016-10-20T07:59:29.141Z,100
2016-10-20T08:00:29.156Z,104
2016-10-20T08:01:29.497Z,104
2016-10-20T08:02:28.883Z,108
2016-10-20T08:03:29.218Z,108
2016-10-20T08:04:29.552Z,108
2016-10-20T08:05:28.961Z,108
2016-10-20T08:06:28.646Z,108
2016-10-20T08:07:29.296Z,116
2016-10-20T08:08:29.333Z,124
2016-10-20T08:09:28.711Z,136
2016-10-20T08:10:29.668Z,136
2016-10-20T08:11:29.366Z,144
2016-10-20T08:12:29.704Z,152
2016-10-20T08:13:29.429Z,152
2016-10-20T08:14:29.105Z,156
2016-10-20T08:15:29.444Z,164
2016-10-20T08:16:29.815Z,172
2016-10-20T08:17:29.185Z,168
2016-10-20T08:18:29.502Z,168
2016-10-20T08:19:29.208Z,168
2016-10-20T08:20:29.238Z,172
2016-10-20T08:21:29.282Z,176
2016-10-20T08:22:29.265Z,168
2016-10-20T08:23:29.638Z,168
2016-10-20T08:24:29.314Z,164
2016-10-20T08:25:29.323Z,160
2016-10-20T08:26:29.659Z,160
2016-10-20T08:27:29.046Z,164
2016-10-20T08:28:29.395Z,164
2016-10-20T08:29:29.439Z,164
2016-10-20T08:30:29.416Z,164
2016-10-20T08:31:29.457Z,164
2016-10-20T08:32:29.462Z,176
2016-10-20T08:33:29.826Z,172
2016-10-20T08:34:29.235Z,184
2016-10-20T08:35:29.518Z,188
2016-10-20T08:36:29.215Z,192
2016-10-20T08:37:29.921Z,216
2016-10-20T08:38:29.262Z,216
2016-10-20T08:39:29.596Z,228
2016-10-20T08:40:30.275Z,268
2016-10-20T08:41:29.632Z,292
2016-10-20T08:42:29.963Z,284
2016-10-20T08:43:29.709Z,344
2016-10-20T08:44:29.694Z,324
2016-10-20T08:45:29.718Z,596
2016-10-20T08:46:30.368Z,352
2016-10-20T08:47:29.431Z,340
2016-10-20T08:48:29.771Z,308
2016-10-20T08:49:29.793Z,292
2016-10-20T08:50:29.816Z,284
2016-10-20T08:51:29.832Z,284
2016-10-20T08:52:30.151Z,284
2016-10-20T08:53:29.857Z,280
2016-10-20T08:54:30.216Z,308
2016-10-20T08:55:29.933Z,348
2016-10-20T08:56:30.241Z,328
2016-10-20T08:57:30.264Z,332
2016-10-20T08:58:30.014Z,356
2016-10-20T08:59:29.656Z,372
2016-10-20T09:00:29.685Z,384
2016-10-20T09:01:30.017Z,452
2016-10-20T09:02:30.033Z,412
2016-10-20T09:03:30.375Z,424
2016-10-20T09:04:30.081Z,408
2016-10-20T09:05:30.097Z,432
2016-10-20T09:06:30.434Z,456
2016-10-20T09:07:29.822Z,548
2016-10-20T09:08:30.476Z,552
2016-10-20T09:09:30.818Z,564
2016-10-20T09:10:30.511Z,1540
2016-10-20T09:11:30.526Z,1476
2016-10-20T09:12:30.556Z,1456
2016-10-20T09:13:30.254Z,2312
2016-10-20T09:14:30.589Z,1900
2016-10-20T09:15:30.972Z,680
2016-10-20T09:16:30.321Z,1440
2016-10-20T09:17:30.969Z,1568
2016-10-20T09:18:30.058Z,560
2016-10-20T09:19:30.425Z,1464
2016-10-20T09:20:30.402Z,2216
2016-10-20T09:21:30.730Z,1472
2016-10-20T09:22:30.117Z,1620
2016-10-20T09:23:30.815Z,1684
2016-10-20T09:24:30.165Z,1256
2016-10-20T09:25:30.519Z,1388
2016-10-20T09:26:30.217Z,1060
2016-10-20T09:27:30.549Z,1304
2016-10-20T09:28:30.246Z,1312
2016-10-20T09:29:30.904Z,1356
2016-10-20T09:30:30.602Z,928
2016-10-20T09:31:31.296Z,1236
2016-10-20T09:32:30.647Z,1124
2016-10-20T09:33:30.668Z,1168
2016-10-20T09:34:30.696Z,1484
2016-10-20T09:35:31.358Z,1248
2016-10-20T09:36:31.049Z,1236
2016-10-20T09:37:31.089Z,808
2016-10-20T09:38:30.771Z,1552
2016-10-20T09:39:30.484Z,564
2016-10-20T09:40:30.507Z,608
2016-10-20T09:41:30.837Z,456
2016-10-20T09:42:30.859Z,484
2016-10-20T09:43:30.566Z,492
2016-10-20T09:44:31.541Z,544
2016-10-20T09:45:31.278Z,584
2016-10-20T09:46:30.634Z,556
2016-10-20T09:47:30.977Z,588
2016-10-20T09:48:30.986Z,588
2016-10-20T09:49:31.017Z,524
2016-10-20T09:50:31.667Z,556
2016-10-20T09:51:31.392Z,512
2016-10-20T09:52:31.094Z,500
2016-10-20T09:53:30.820Z,480
2016-10-20T09:54:30.818Z,480
2016-10-20T09:55:31.144Z,460
2016-10-20T09:56:31.484Z,484
2016-10-20T09:57:31.552Z,440
2016-10-20T09:58:31.220Z,420
2016-10-20T09:59:30.926Z,408
2016-10-20T10:00:30.931Z,400
2016-10-20T10:01:30.959Z,372
2016-10-20T10:02:31.617Z,380
2016-10-20T10:03:31.709Z,340
2016-10-20T10:04:31.333Z,320
2016-10-20T10:05:31.359Z,312
2016-10-20T10:06:31.382Z,304
2016-10-20T10:07:31.398Z,288
2016-10-20T10:08:31.424Z,272
2016-10-20T10:09:32.075Z,264
2016-10-20T10:10:31.788Z,256
2016-10-20T10:11:31.486Z,248
2016-10-20T10:12:31.528Z,252
2016-10-20T10:13:31.562Z,264
2016-10-20T10:14:31.899Z,276
2016-10-20T10:15:31.882Z,300
2016-10-20T10:16:31.594Z,324
2016-10-20T10:17:32.261Z,320
2016-10-20T10:18:32.262Z,304
2016-10-20T10:19:31.651Z,312
2016-10-20T10:20:46.245Z,296
2016-10-20T10:21:31.382Z,284
2016-10-20T10:22:31.730Z,276
2016-10-20T10:23:31.749Z,292
2016-10-20T10:24:32.409Z,304
2016-10-20T10:25:32.113Z,316
2016-10-20T10:26:32.151Z,328
2016-10-20T10:27:31.823Z,328
2016-10-20T10:28:32.156Z,336
2016-10-20T10:29:31.869Z,300
2016-10-20T10:30:31.886Z,292
2016-10-20T10:31:31.907Z,256
2016-10-20T10:32:31.613Z,252
2016-10-20T10:33:31.949Z,280
2016-10-20T10:34:31.970Z,308
2016-10-20T10:35:32.640Z,336
2016-10-20T10:36:32.330Z,332
2016-10-20T10:37:32.353Z,304
2016-10-20T10:38:32.055Z,308
2016-10-20T10:39:32.072Z,328
2016-10-20T10:40:32.411Z,416
2016-10-20T10:41:32.112Z,400
2016-10-20T10:42:32.458Z,456
2016-10-20T10:43:32.153Z,472
2016-10-20T10:44:32.807Z,528
2016-10-20T10:45:32.830Z,532
2016-10-20T10:46:32.218Z,524
2016-10-20T10:47:32.241Z,480
2016-10-20T10:48:31.957Z,472
2016-10-20T10:49:32.321Z,484
2016-10-20T10:50:32.299Z,488
2016-10-20T10:51:32.660Z,492
2016-10-20T10:52:32.667Z,464
2016-10-20T10:53:32.682Z,476
2016-10-20T10:54:32.069Z,428
2016-10-20T10:55:32.405Z,432
2016-10-20T10:56:32.427Z,424
2016-10-20T10:57:33.074Z,392
2016-10-20T10:58:32.782Z,388
2016-10-20T10:59:32.811Z,376
2016-10-20T11:00:32.512Z,372
2016-10-20T11:01:32.214Z,492
2016-10-20T11:02:32.547Z,488
2016-10-20T11:03:33.222Z,380
2016-10-20T11:04:32.593Z,348
2016-10-20T11:05:32.928Z,344
2016-10-20T11:06:32.638Z,332
2016-10-20T11:07:32.977Z,288
2016-10-20T11:08:32.993Z,264
2016-10-20T11:09:32.707Z,232
2016-10-20T11:10:32.717Z,216
2016-10-20T11:11:33.373Z,196
2016-10-20T11:12:33.079Z,192
2016-10-20T11:13:32.783Z,188
2016-10-20T11:14:33.115Z,200
2016-10-20T11:15:33.135Z,204
2016-10-20T11:16:32.843Z,224
2016-10-20T11:17:33.197Z,248
2016-10-20T11:18:32.905Z,268
2016-10-20T11:19:33.223Z,300
2016-10-20T11:20:33.287Z,320
2016-10-20T11:21:32.949Z,328
2016-10-20T11:22:33.290Z,316
2016-10-20T11:23:33.005Z,312
2016-10-20T11:24:33.643Z,316
2016-10-20T11:25:33.685Z,348
2016-10-20T11:26:33.072Z,352
2016-10-20T11:27:33.080Z,352
2016-10-20T11:28:32.830Z,544
2016-10-20T11:29:32.802Z,424
2016-10-20T11:30:33.451Z,428
2016-10-20T11:31:32.849Z,428
2016-10-20T11:32:33.496Z,692
2016-10-20T11:33:33.840Z,448
2016-10-20T11:34:33.242Z,400
2016-10-20T11:35:33.250Z,552
2016-10-20T11:36:33.261Z,1068
2016-10-20T11:37:33.290Z,356
2016-10-20T11:38:33.633Z,308
2016-10-20T11:39:33.335Z,312
2016-10-20T11:40:33.715Z,332
2016-10-20T11:41:33.689Z,376
2016-10-20T11:42:33.411Z,652
2016-10-20T11:43:33.421Z,496
2016-10-20T11:44:33.451Z,1128
2016-10-20T11:45:33.149Z,1096
2016-10-20T11:46:33.474Z,1084
2016-10-20T11:47:33.212Z,1072
2016-10-20T11:48:33.518Z,1036
2016-10-20T11:49:33.555Z,360
2016-10-20T11:50:33.876Z,284
2016-10-20T11:51:33.265Z,248
2016-10-20T11:52:33.300Z,240
2016-10-20T11:53:33.626Z,240
2016-10-20T11:54:33.978Z,244
2016-10-20T11:55:33.671Z,248
2016-10-20T11:56:33.689Z,236
2016-10-20T11:57:33.401Z,224
2016-10-20T11:58:34.049Z,204
2016-10-20T11:59:33.455Z,192
2016-10-20T12:00:34.101Z,176
2016-10-20T12:01:34.117Z,176
2016-10-20T12:02:34.140Z,192
2016-10-20T12:03:33.852Z,196
2016-10-20T12:04:34.497Z,200
2016-10-20T12:05:33.711Z,248
2016-10-20T12:06:33.604Z,216
2016-10-20T12:07:33.621Z,256
2016-10-20T12:08:33.952Z,836
2016-10-20T12:09:33.660Z,868
2016-10-20T12:10:34.319Z,408
2016-10-20T12:11:33.697Z,1020
2016-10-20T12:12:34.383Z,328
2016-10-20T12:13:33.750Z,300
2016-10-20T12:14:34.401Z,268
2016-10-20T12:15:33.790Z,268
2016-10-20T12:16:34.127Z,276
2016-10-20T12:17:33.828Z,248
2016-10-20T12:18:34.162Z,228
2016-10-20T12:19:34.195Z,196
2016-10-20T12:20:33.936Z,196
2016-10-20T12:21:34.235Z,192
2016-10-20T12:22:34.253Z,208
2016-10-20T12:23:34.308Z,240
2016-10-20T12:24:34.094Z,296
2016-10-20T12:25:34.672Z,788
2016-10-20T12:26:35.153Z,828
2016-10-20T12:27:35.030Z,320
2016-10-20T12:28:34.729Z,344
2016-10-20T12:29:34.449Z,796
2016-10-20T12:30:34.523Z,796
2016-10-20T12:31:34.769Z,356
2016-10-20T12:32:34.850Z,520
2016-10-20T12:33:34.185Z,740
2016-10-20T12:34:34.833Z,784
2016-10-20T12:35:34.558Z,780
2016-10-20T12:36:34.914Z,772
2016-10-20T12:37:34.315Z,752
2016-10-20T12:38:35.057Z,764
2016-10-20T12:39:35.252Z,736
2016-10-20T12:40:34.981Z,732
2016-10-20T12:41:35.104Z,736
2016-10-20T12:42:34.771Z,720
2016-10-20T12:43:34.462Z,708
2016-10-20T12:44:34.731Z,688
2016-10-20T12:45:35.077Z,700
2016-10-20T12:46:35.137Z,684
2016-10-20T12:47:35.133Z,680
2016-10-20T12:48:35.151Z,672
2016-10-20T12:49:34.857Z,668
2016-10-20T12:50:35.503Z,688
2016-10-20T12:51:35.219Z,680
2016-10-20T12:52:34.924Z,188
2016-10-20T12:53:35.579Z,308
2016-10-20T12:54:34.962Z,276
2016-10-20T12:55:34.680Z,168
2016-10-20T12:56:34.700Z,164
2016-10-20T12:57:35.648Z,168
2016-10-20T12:58:35.394Z,176
2016-10-20T12:59:35.080Z,332
2016-10-20T13:00:35.091Z,212
2016-10-20T13:01:35.560Z,224
2016-10-20T13:02:34.817Z,228
2016-10-20T13:03:35.170Z,228
2016-10-20T13:04:35.493Z,264
2016-10-20T13:05:35.517Z,704
2016-10-20T13:06:34.909Z,256
2016-10-20T13:07:35.252Z,348
2016-10-20T13:08:35.581Z,324
2016-10-20T13:09:35.924Z,272
2016-10-20T13:10:35.334Z,260
2016-10-20T13:11:35.357Z,236
2016-10-20T13:12:35.361Z,228
2016-10-20T13:13:35.394Z,216
2016-10-20T13:14:35.402Z,200
2016-10-20T13:15:36.064Z,188
2016-10-20T13:16:35.476Z,176
2016-10-20T13:17:35.485Z,160
2016-10-20T13:18:35.819Z,172
2016-10-20T13:19:35.201Z,192
2016-10-20T13:20:35.547Z,464
2016-10-20T13:21:35.567Z,204
2016-10-20T13:22:35.904Z,184
2016-10-20T13:23:35.309Z,172
2016-10-20T13:24:35.952Z,164
2016-10-20T13:25:35.645Z,168
2016-10-20T13:26:35.980Z,212
2016-10-20T13:27:36.317Z,564
2016-10-20T13:28:36.028Z,584
2016-10-20T13:29:36.057Z,196
2016-10-20T13:30:35.768Z,564
2016-10-20T13:31:35.797Z,312
2016-10-20T13:32:35.809Z,196
2016-10-20T13:33:36.146Z,232
2016-10-20T13:34:35.849Z,600
2016-10-20T13:35:35.864Z,568
2016-10-20T13:36:36.227Z,552
2016-10-20T13:37:35.918Z,516
2016-10-20T13:38:36.559Z,504
2016-10-20T13:39:35.947Z,472
2016-10-20T13:40:35.657Z,136
2016-10-20T13:41:36.006Z,124
2016-10-20T13:42:36.013Z,112
2016-10-20T13:43:36.356Z,136
2016-10-20T13:44:36.061Z,464
2016-10-20T13:45:36.710Z,476
2016-10-20T13:46:35.811Z,440
2016-10-20T13:47:36.766Z,436
2016-10-20T13:48:35.836Z,428
2016-10-20T13:49:36.176Z,428
2016-10-20T13:50:36.830Z,428
2016-10-20T13:51:36.524Z,428
2016-10-20T13:52:36.236Z,416
2016-10-20T13:53:36.571Z,244
2016-10-20T13:54:36.280Z,412
2016-10-20T13:55:36.303Z,416
2016-10-20T13:56:36.327Z,420
2016-10-20T13:57:36.378Z,300
2016-10-20T13:58:36.050Z,444
2016-10-20T13:59:36.709Z,432
2016-10-20T14:00:36.440Z,444
2016-10-20T14:01:36.757Z,420
2016-10-20T14:02:36.460Z,392
2016-10-20T14:03:36.476Z,388
2016-10-20T14:04:36.498Z,404
2016-10-20T14:05:36.209Z,392
2016-10-20T14:06:36.547Z,308
2016-10-20T14:07:36.939Z,384
2016-10-20T14:08:36.914Z,380
2016-10-20T14:09:36.623Z,372
2016-10-20T14:10:36.978Z,372
2016-10-20T14:11:37.294Z,368
2016-10-20T14:12:36.717Z,364
2016-10-20T14:13:37.018Z,364